首页
METAR-TAF:

METAR-TAF

机场 :

Saginaw, 密歇根州, 美国

纬度: 43-31-58N, 经度: 084-04-46W, 海拔: 204米

当前天气观测

该预报发布于49分钟前的00:53 UTC
风速13节,风向
温度 3°C
湿度 70%
气压 1015 hPa
能見度: 16.1公里
散云层高于2300英尺
阴天层高于4300英尺

METAR: KMBS 300053Z AUTO 36013KT 10SM SCT023 OVC043 03/M02 A2998 RMK AO2 SLP158 T00281017 $

时间: 21:42 (01:42 UTC)

预报

该预报发布于2小时和22分钟前的23:20 UTC
预报有效从30日的 00点(UTC)到 30日的 24点(UTC)
风速12节,风向北转东北
能見度: 9.7公里
阴天层高于1200英尺
小阵雨
从 30日的 0300点(UTC)
风速11节,风向,有时为18节阵风
能見度: 10公里
散云层高于1800英尺
阴天层高于2200英尺
从 30日的 0600点(UTC)
风速11节,风向
能見度: 10公里
阴天层高于3000英尺
从 30日的 1400点(UTC)
风速8节,风向北转西北
能見度: 10公里
散云层高于4000英尺

TAF: KMBS 292320Z 3000/3024 02012KT 6SM -SHRA OVC012 FM300300 36011G18KT P6SM SCT018 OVC022 FM300600 35011KT P6SM OVC030 FM301400 33008KT P6SM SCT040

超过4000个机场的气象观测和天气预报(METAR&TAF报告)。

可查询的气象台以黄色和红色小点在地图上表示。

将鼠标移到小点上方,可查看气象台名称。

然后点击查看天气观测和预报。

如需切换地图:点击带黑十字的绿色按钮放大地图;点击带横线的绿色按钮缩小地图;或者点击绿色箭头查看邻近地区的地图。


METAR-TAF: